Flight Track Log - Related Links

Times and Time Zones

All times are in EST time to prevent confusion due to time zone crossing. See the N465TP flight status page for this flight to view local times or setup timezone preferences in your user account.

Time Position Orientation Groundspeed Altitude Reporting Facility
EST Latitude Longitude Course Direction KTS MPH feet Rate Location/Type
Sun 04:26:55 PM 44.9742 -111.6797 184° South 185 213 15,600  Level Salt Lake Center
Sun 04:27:32 PM 44.9486 -111.6825 184° South 160 184 16,300 1,263 Climbing Salt Lake Center
Sun 04:27:52 PM 44.9325 -111.6842 184° South 160 184 16,800 1,171 Climbing Salt Lake Center
Sun 04:28:54 PM 44.8892 -111.6892 185° South 161 185 17,900 1,073 Climbing Salt Lake Center
Sun 04:29:55 PM 44.8358 -111.6953 185° South 167 192 19,000 1,220 Climbing Salt Lake Center
Sun 04:30:57 PM 44.7894 -111.7000 184° South 173 199 20,400 1,429 Climbing Salt Lake Center
Sun 04:30:58 PM 44.7858 -111.7000 180° South 151 174 20,500 1,116 Climbing Salt Lake Center
Sun 04:31:40 PM 44.7542 -111.7056 187° South 163 188 21,200 900 Climbing Salt Lake Center
Sun 04:31:58 PM 44.7431 -111.7058 181° South 175 201 21,400 1,082 Climbing Salt Lake Center
Sun 04:32:00 PM 44.9089 -111.6758 184° South  Level FlightAware Approximate
Sun 04:32:41 PM 44.7075 -111.7119 187° South 182 209 22,300  Level Salt Lake Center
Sun 04:33:00 PM 44.6872 -111.7122 181° South 180 207 22,800 1,200 Climbing Salt Lake Center
Sun 04:33:41 PM 44.6514 -111.7167 185° South 187 215 23,500 885 Climbing Salt Lake Center
Sun 04:34:01 PM 44.6369 -111.7181 184° South 191 220 23,700 1,091 Climbing Salt Lake Center
Sun 04:34:36 PM 44.6019 -111.7211 184° South 190 219 24,500 1,161 Climbing Salt Lake Center
Sun 04:35:03 PM 44.5778 -111.7244 186° South 194 223 24,900 492 Climbing Salt Lake Center
Sun 04:35:37 PM 44.5442 -111.7267 183° South 203 234 25,000 97 Climbing Salt Lake Center
Sun 04:36:05 PM 44.5214 -111.7308 187° South 215 247 25,000  Level Salt Lake Center
Sun 04:36:31 PM 44.4889 -111.7342 184° South 232 267 25,000  Level Salt Lake Center
Sun 04:37:06 PM 44.4481 -111.7378 184° South 237 273 25,000  Level Salt Lake Center
Sun 04:37:32 PM 44.4308 -111.7394 184° South 244 281 25,000  Level Salt Lake Center
Sun 04:38:08 PM 44.3842 -111.7453 185° South 240 276 25,000  Level Salt Lake Center
Sun 04:38:32 PM 44.3506 -111.7522 188° South 244 281 25,000  Level Salt Lake Center
Sun 04:39:09 PM 44.3067 -111.7561 184° South 246 283 25,000  Level Salt Lake Center
Sun 04:40:11 PM 44.2417 -111.7617 184° South 247 284 25,000  Level Salt Lake Center
Sun 04:41:12 PM 44.1761 -111.7683 184° South 247 284 25,000  Level Salt Lake Center
Sun 04:42:14 PM 44.0997 -111.7781 185° South 247 284 25,000  Level Salt Lake Center
Sun 04:43:16 PM 44.0347 -111.7844 184° South 245 282 25,000  Level Salt Lake Center
Sun 04:44:17 PM 43.9564 -111.7919 184° South 250 288 25,000  Level Salt Lake Center
Sun 04:45:19 PM 43.8908 -111.7989 184° South 247 284 25,000  Level Salt Lake Center
Sun 04:46:20 PM 43.8156 -111.8061 184° South 244 281 25,000  Level Salt Lake Center
Sun 04:47:22 PM 43.7500 -111.8139 185° South 247 284 25,000  Level Salt Lake Center
Sun 04:48:23 PM 43.6844 -111.8194 184° South 245 282 25,000  Level Salt Lake Center
Sun 04:49:25 PM 43.6083 -111.8269 184° South 247 284 25,000  Level Salt Lake Center
Sun 04:50:26 PM 43.5428 -111.8342 185° South 247 284 25,000  Level Salt Lake Center
Sun 04:51:28 PM 43.4672 -111.8431 185° South 245 282 25,000  Level Salt Lake Center
Sun 04:52:30 PM 43.4033 -111.8489 184° South 242 278 25,000  Level Salt Lake Center
Sun 04:53:31 PM 43.3267 -111.8569 184° South 244 281 25,000  Level Salt Lake Center
Sun 04:54:33 PM 43.2611 -111.8631 184° South 246 283 25,000  Level Salt Lake Center
Sun 04:55:34 PM 43.1967 -111.8683 183° South 244 281 25,000  Level Salt Lake Center
Sun 04:56:36 PM 43.1222 -111.8789 186° South 242 278 25,000  Level Salt Lake Center
Sun 04:57:37 PM 43.0556 -111.8839 183° South 245 282 25,000  Level Salt Lake Center
Sun 04:58:39 PM 42.9794 -111.8931 185° South 245 282 25,000  Level Salt Lake Center
Sun 04:59:41 PM 42.9153 -111.8997 184° South 244 281 25,000  Level Salt Lake Center
Sun 05:00:42 PM 42.8517 -111.9047 183° South 240 276 25,000  Level Salt Lake Center
Sun 05:01:44 PM 42.7764 -111.9128 184° South 240 276 25,000  Level Salt Lake Center
Sun 05:02:45 PM 42.7117 -111.9194 184° South 243 280 25,000  Level Salt Lake Center
Sun 05:03:47 PM 42.6483 -111.9267 185° South 238 274 25,000  Level Salt Lake Center
Sun 05:04:48 PM 42.5700 -111.9328 183° South 236 272 25,000  Level Salt Lake Center
Sun 05:05:50 PM 42.5044 -111.9411 185° South 236 272 25,000  Level Salt Lake Center
Sun 05:06:51 PM 42.4392 -111.9475 184° South 235 270 25,000  Level Salt Lake Center
Sun 05:07:53 PM 42.3739 -111.9531 184° South 237 273 25,000  Level Salt Lake Center
Sun 05:08:54 PM 42.3086 -111.9606 185° South 236 272 25,000  Level Salt Lake Center
Sun 05:09:56 PM 42.2436 -111.9661 184° South 234 269 25,000 -194 Level Salt Lake Center
Sun 05:10:58 PM 42.1794 -111.9736 185° South 233 268 24,600 -732 Descending Salt Lake Center
Sun 05:11:59 PM 42.1164 -111.9806 185° South 228 262 23,500 -1,415 Descending Salt Lake Center
Sun 05:13:01 PM 42.0417 -111.9867 183° South 225 259 21,700 -1,610 Descending Salt Lake Center
Sun 05:14:02 PM 41.9792 -111.9919 184° South 226 260 20,200 -1,463 Descending Salt Lake Center
Sun 05:15:04 PM 41.9200 -111.9989 185° South 216 249 18,700 -1,415 Descending Salt Lake Center
Sun 05:16:05 PM 41.8611 -112.0047 184° South 213 245 17,300 -1,073 Descending Salt Lake Center
Sun 05:17:07 PM 41.8022 -112.0106 184° South 213 245 16,500 -864 Descending Salt Lake Center
Sun 05:18:03 PM 41.7444 -112.0092 179° South 201 231 15,600 -787 Descending Salt Lake Center
Sun 05:18:08 PM 41.7475 -112.0175 296° West 198 228 15,700 -627 Climbing Salt Lake Center
Sun 05:19:10 PM 41.6933 -112.0261 187° South 197 227 14,900 -889 Descending Salt Lake Center
Sun 05:19:29 PM 41.6697 -112.0233 175° South 198 228 14,500 -787 Descending Salt Lake Center
Sun 05:20:11 PM 41.6261 -112.0358 192° South 205 236 14,100 -492 Descending Salt Lake Center
Sun 05:20:30 PM 41.6153 -112.0308 161° South 199 229 14,000 -290 Descending Salt Lake Center
Sun 05:21:13 PM 41.5703 -112.0386 187° South 203 234 13,800 -364 Descending Salt Lake Center
Sun 05:21:36 PM 41.5486 -112.0192 146° Southeast 224 258 13,600 -484 Descending Salt Lake Center
Sun 05:22:15 PM 41.5167 -112.0072 164° South 208 239 13,300 -492 Descending Salt Lake Center
Sun 05:22:37 PM 41.4953 -111.9889 147° Southeast 204 235 13,100 -492 Descending Salt Lake Center
Sun 05:23:16 PM 41.4625 -111.9781 166° South 210 242 12,800 -492 Descending Salt Lake Center
Sun 05:23:38 PM 41.4406 -111.9619 151° Southeast 214 246 12,600 -484 Descending Salt Lake Center
Sun 05:24:18 PM 41.4033 -111.9625 181° South 218 251 12,300 -492 Descending Salt Lake Center
Sun 05:24:39 PM 41.3792 -111.9572 171° South 220 253 12,100 -295 Descending Salt Lake Center
Sun 05:25:19 PM 41.3442 -111.9614 185° South 215 247 12,000 -197 Descending Salt Lake Center
Sun 05:25:40 PM 41.3217 -111.9597 177° South 202 232 11,900 -290 Descending Salt Lake Center
Sun 05:26:21 PM 41.2914 -111.9617 183° South 194 223 11,700 -448 Descending Salt Lake Center
Sun 05:26:47 PM 41.2611 -111.9578 174° South 193 222 11,400 -581 Descending Salt Lake Center
Sun 05:27:23 PM 41.2267 -111.9614 185° South 194 223 11,100 -492 Descending Salt Lake Center
Sun 05:27:48 PM 41.2053 -111.9597 177° South 193 222 10,900 -492 Descending Salt Lake Center
Sun 05:28:24 PM 41.1747 -111.9608 182° South 188 216 10,600 -537 Descending Salt Lake Center
Sun 05:28:55 PM 41.1539 -111.9603 179° South 178 205 10,300 -484 Descending Salt Lake Center
Sun 05:29:26 PM 41.1278 -111.9611 181° South 173 199 10,100 -500 Descending Salt Lake Center
Sun 05:29:43 PM 41.1128 -111.9600 177° South 173 199 9,900 -677 Descending Salt Lake Center
Sun 05:30:28 PM 41.0783 -111.9617 182° South 179 206 9,400 -627 Descending Salt Lake Center
Sun 05:30:50 PM 41.0592 -111.9614 179° South 179 206 9,200 -393 Descending Salt Lake Center
Sun 05:31:29 PM 41.0303 -111.9619 181° South 176 203 9,000 -689 Descending Salt Lake Center
Sun 05:31:51 PM 41.0036 -111.9633 182° South 182 209 8,500 -968 Descending Salt Lake Center
Sun 05:32:31 PM 40.9797 -111.9628 179° South 184 212 8,000 -873 Descending Salt Lake Center
Sun 05:32:46 PM 40.9603 -111.9611 176° South 182 209 7,700 -1,065 Descending Salt Lake Center
Sun 05:33:33 PM 40.9197 -111.9622 181° South 183 211 6,900 -985 Descending Salt Lake Center
Sun 05:33:53 PM 40.9025 -111.9636 183° South 186 214 6,600 -1,180 Descending Salt Lake Center
Sun 05:34:34 PM 40.8728 -111.9622 178° South 172 198 5,700 -1,180 Descending Salt Lake Center
Sun 05:34:54 PM 40.8597 -111.9642 186° South 150 173 5,400 -774 Descending Salt Lake Center
Sun 05:35:36 PM 40.8342 -111.9625 177° South 143 165 4,900 -667 Descending Salt Lake Center
Sun 05:35:48 PM 40.8247 -111.9619 177° South 135 155 4,800 -590 Descending Salt Lake Center
Sun 05:36:37 PM 40.8031 -111.9619 180° South 110 127 4,300 -612 Descending Salt Lake Center
Sun 05:38:00 PM 40.7833 -111.9667 180° South  Level FlightAware Approximate

Login

Don't have an account? Register now (free) for customized features, flight alerts, and more!